Time;durP1;ratioP1;P1;durP2;ratioP2;P2;SDS_P1;SDS_P2;PMS_P1;PMS_P2;Temp;Humidity;BMP_temperature;BMP_pressure;BME280_temperature;BME280_humidity;BME280_pressure;Samples;Min_cycle;Max_cycle;Signal;HPM_P1;HPM_P2
2023/08/11 00:02:13;;;;;;;5.63;4.60;;;;;;;;;;6314711;28;20040;-81
2023/08/11 00:05:17;;;;;;;6.38;4.63;;;;;;;;;;6313669;28;20062;-82
2023/08/11 00:08:19;;;;;;;7.03;4.65;;;;;;;;;;6304280;28;20159;-80
2023/08/11 00:11:20;;;;;;;6.88;4.40;;;;;;;;;;6313711;28;20075;-82
2023/08/11 00:14:22;;;;;;;6.07;4.53;;;;;;;;;;6314007;28;21665;-81
2023/08/11 00:17:23;;;;;;;4.85;4.22;;;;;;;;;;6314183;28;20079;-82
2023/08/11 00:20:26;;;;;;;5.88;4.05;;;;;;;;;;6318220;28;20056;-78
2023/08/11 00:23:27;;;;;;;7.55;4.45;;;;;;;;;;6313625;28;20063;-81
2023/08/11 00:26:30;;;;;;;4.82;4.30;;;;;;;;;;6313899;28;20057;-82
2023/08/11 00:29:31;;;;;;;4.30;3.70;;;;;;;;;;6314836;28;20097;-79
2023/08/11 00:32:33;;;;;;;5.63;4.28;;;;;;;;;;6313260;28;20102;-82
2023/08/11 00:35:36;;;;;;;9.05;4.60;;;;;;;;;;6312762;28;20075;-82
2023/08/11 00:38:38;;;;;;;4.43;4.03;;;;;;;;;;6318014;28;20089;-82
2023/08/11 00:41:40;;;;;;;10.48;4.35;;;;;;;;;;6316163;28;20063;-82
2023/08/11 00:44:41;;;;;;;5.18;3.90;;;;;;;;;;6312156;28;20074;-81
2023/08/11 00:47:43;;;;;;;8.90;4.40;;;;;;;;;;6312473;28;20056;-81
2023/08/11 00:50:46;;;;;;;7.55;4.03;;;;;;;;;;6316803;28;20068;-81
2023/08/11 00:53:48;;;;;;;4.80;3.92;;;;;;;;;;6316396;28;20090;-82
2023/08/11 00:56:49;;;;;;;7.10;4.65;;;;;;;;;;6312904;28;20066;-82
2023/08/11 00:59:51;;;;;;;6.32;3.67;;;;;;;;;;6313223;28;20048;-81
2023/08/11 01:02:52;;;;;;;7.97;4.10;;;;;;;;;;6312803;28;20101;-81
2023/08/11 01:06:03;;;;;;;5.88;3.80;;;;;;;;;;6313561;28;20052;-82
2023/08/11 01:09:08;;;;;;;6.28;4.00;;;;;;;;;;6316313;28;20056;-80
2023/08/11 01:12:20;;;;;;;5.25;4.00;;;;;;;;;;6316494;28;20050;-77
2023/08/11 01:15:24;;;;;;;4.30;3.67;;;;;;;;;;6319879;28;20320;-81
2023/08/11 01:18:26;;;;;;;5.03;3.80;;;;;;;;;;6316203;28;20324;-81
2023/08/11 01:21:31;;;;;;;6.90;4.38;;;;;;;;;;6317070;28;20097;-82
2023/08/11 01:24:34;;;;;;;7.07;3.92;;;;;;;;;;6316243;28;20052;-80
2023/08/11 01:27:36;;;;;;;5.30;3.75;;;;;;;;;;6319455;28;20055;-82
2023/08/11 01:30:37;;;;;;;5.82;3.80;;;;;;;;;;6318994;28;20067;-81
2023/08/11 01:33:39;;;;;;;6.03;3.55;;;;;;;;;;6320058;28;20056;-80
2023/08/11 01:36:41;;;;;;;5.35;3.10;;;;;;;;;;6319982;28;20056;-80
2023/08/11 01:39:44;;;;;;;5.20;3.50;;;;;;;;;;6319174;28;20260;-83
2023/08/11 01:42:46;;;;;;;4.70;3.15;;;;;;;;;;6319779;28;20076;-83
2023/08/11 01:45:48;;;;;;;4.43;3.17;;;;;;;;;;6319092;28;20073;-84
2023/08/11 01:48:50;;;;;;;6.68;3.17;;;;;;;;;;6315668;28;20115;-83
2023/08/11 01:51:51;;;;;;;6.00;3.25;;;;;;;;;;6319195;28;20048;-82
2023/08/11 01:54:54;;;;;;;3.97;3.20;;;;;;;;;;6320931;28;20285;-80
2023/08/11 01:57:56;;;;;;;5.75;2.85;;;;;;;;;;6316705;28;20113;-82
2023/08/11 02:00:57;;;;;;;4.95;3.22;;;;;;;;;;6317173;28;20055;-83
2023/08/11 02:03:59;;;;;;;4.60;3.33;;;;;;;;;;6314015;28;20041;-83
2023/08/11 02:07:00;;;;;;;7.60;4.07;;;;;;;;;;6317915;28;20079;-82
2023/08/11 02:10:03;;;;;;;5.15;3.05;;;;;;;;;;6317185;28;20232;-81
2023/08/11 02:13:05;;;;;;;4.60;3.08;;;;;;;;;;6314587;28;20256;-83
2023/08/11 02:16:06;;;;;;;3.50;2.50;;;;;;;;;;6317047;28;20066;-83
2023/08/11 02:19:08;;;;;;;4.07;2.40;;;;;;;;;;6319165;28;20051;-83
2023/08/11 02:22:09;;;;;;;3.25;2.53;;;;;;;;;;6322054;28;20231;-83
2023/08/11 02:25:12;;;;;;;3.15;2.40;;;;;;;;;;6320061;28;20052;-82
2023/08/11 02:28:14;;;;;;;3.03;2.63;;;;;;;;;;6321166;28;20294;-83
2023/08/11 02:31:15;;;;;;;5.90;2.72;;;;;;;;;;6321754;28;20063;-83
2023/08/11 02:34:16;;;;;;;9.25;3.42;;;;;;;;;;6320016;28;20048;-83
2023/08/11 02:37:18;;;;;;;3.83;2.58;;;;;;;;;;6315090;28;20240;-78
2023/08/11 02:40:21;;;;;;;7.68;2.40;;;;;;;;;;6315969;28;20044;-82
2023/08/11 02:43:22;;;;;;;4.38;2.28;;;;;;;;;;6308916;28;20060;-83
2023/08/11 02:46:24;;;;;;;4.05;2.22;;;;;;;;;;6317497;28;20055;-79
2023/08/11 02:49:25;;;;;;;5.03;2.75;;;;;;;;;;6312964;28;20049;-79
2023/08/11 02:52:27;;;;;;;7.35;2.83;;;;;;;;;;6316104;28;20056;-83
2023/08/11 02:55:29;;;;;;;7.30;2.85;;;;;;;;;;6317842;28;20052;-83
2023/08/11 02:58:31;;;;;;;8.75;3.22;;;;;;;;;;6320553;28;20045;-83
2023/08/11 03:01:33;;;;;;;5.47;2.28;;;;;;;;;;6316515;28;20119;-82
2023/08/11 03:04:36;;;;;;;4.90;3.30;;;;;;;;;;6315087;28;20044;-78
2023/08/11 03:07:38;;;;;;;3.40;2.70;;;;;;;;;;6315578;28;20067;-83
2023/08/11 03:10:40;;;;;;;2.92;2.55;;;;;;;;;;6317353;28;20133;-83
2023/08/11 03:13:42;;;;;;;5.00;2.97;;;;;;;;;;6317072;28;20056;-82
2023/08/11 03:16:44;;;;;;;3.25;2.60;;;;;;;;;;6315817;28;20120;-83
2023/08/11 03:19:45;;;;;;;7.72;2.85;;;;;;;;;;6316626;28;20097;-82
2023/08/11 03:22:47;;;;;;;3.80;2.55;;;;;;;;;;6314605;28;20090;-82
2023/08/11 03:25:50;;;;;;;4.03;2.90;;;;;;;;;;6316369;28;20324;-83
2023/08/11 03:28:51;;;;;;;3.13;2.75;;;;;;;;;;6317781;28;20044;-80
2023/08/11 03:31:53;;;;;;;3.67;2.80;;;;;;;;;;6318173;28;20060;-83
2023/08/11 03:34:54;;;;;;;3.13;2.53;;;;;;;;;;6314340;28;20067;-82
2023/08/11 03:37:55;;;;;;;8.93;2.97;;;;;;;;;;6316126;28;20055;-83
2023/08/11 03:40:58;;;;;;;7.47;3.33;;;;;;;;;;6316663;28;20065;-83
2023/08/11 03:44:00;;;;;;;3.30;2.50;;;;;;;;;;6314125;28;20340;-82
2023/08/11 03:47:02;;;;;;;3.03;2.40;;;;;;;;;;6320465;28;20239;-80
2023/08/11 03:50:03;;;;;;;5.18;2.50;;;;;;;;;;6314928;28;20283;-82
2023/08/11 03:53:05;;;;;;;3.63;2.65;;;;;;;;;;6318009;28;20064;-82
2023/08/11 03:56:08;;;;;;;4.35;2.50;;;;;;;;;;6317537;28;20052;-81
2023/08/11 03:59:09;;;;;;;4.88;2.35;;;;;;;;;;6314780;28;20086;-82
2023/08/11 04:02:10;;;;;;;17.02;3.40;;;;;;;;;;6315930;28;20052;-82
2023/08/11 04:05:12;;;;;;;5.72;2.83;;;;;;;;;;6314215;28;20044;-83
2023/08/11 04:08:14;;;;;;;6.07;2.35;;;;;;;;;;6315513;28;20067;-79
2023/08/11 04:11:17;;;;;;;13.52;2.88;;;;;;;;;;6314148;28;20058;-82
2023/08/11 04:14:18;;;;;;;7.95;2.97;;;;;;;;;;6313641;28;20053;-83
2023/08/11 04:17:19;;;;;;;5.80;2.60;;;;;;;;;;6313377;28;20060;-82
2023/08/11 04:20:22;;;;;;;4.10;2.40;;;;;;;;;;6313337;28;20062;-83
2023/08/11 04:23:23;;;;;;;7.57;2.88;;;;;;;;;;6312226;28;20056;-81
2023/08/11 04:26:26;;;;;;;7.10;2.78;;;;;;;;;;6315204;28;20942;-81
2023/08/11 04:29:27;;;;;;;3.53;2.70;;;;;;;;;;6312581;28;20055;-80
2023/08/11 04:32:29;;;;;;;2.90;2.58;;;;;;;;;;6313215;28;20055;-81
2023/08/11 04:35:30;;;;;;;4.22;2.40;;;;;;;;;;6312113;28;20064;-82
2023/08/11 04:38:32;;;;;;;3.67;2.35;;;;;;;;;;6314355;28;20088;-83
2023/08/11 04:41:35;;;;;;;3.97;2.20;;;;;;;;;;6311107;28;20280;-83
2023/08/11 04:44:36;;;;;;;4.45;2.63;;;;;;;;;;6314854;28;20213;-79
2023/08/11 04:47:38;;;;;;;3.28;2.35;;;;;;;;;;6310110;28;20229;-83
2023/08/11 04:50:39;;;;;;;4.90;2.20;;;;;;;;;;6308536;28;20284;-83
2023/08/11 04:53:41;;;;;;;6.40;2.22;;;;;;;;;;6301251;28;20058;-81
2023/08/11 04:56:44;;;;;;;3.85;2.28;;;;;;;;;;6306917;28;20055;-83
2023/08/11 04:59:45;;;;;;;5.78;2.45;;;;;;;;;;6308261;28;20059;-82
2023/08/11 05:02:47;;;;;;;6.68;2.40;;;;;;;;;;6309341;28;20055;-83
2023/08/11 05:05:48;;;;;;;2.28;1.88;;;;;;;;;;6304143;28;20056;-79
2023/08/11 05:08:50;;;;;;;2.85;2.20;;;;;;;;;;6313250;28;20051;-81
2023/08/11 05:11:53;;;;;;;3.85;2.05;;;;;;;;;;6310579;28;20042;-81
2023/08/11 05:14:54;;;;;;;4.13;2.30;;;;;;;;;;6313599;28;20068;-80
2023/08/11 05:17:56;;;;;;;5.18;2.10;;;;;;;;;;6313466;28;20058;-82
2023/08/11 05:20:57;;;;;;;4.68;2.00;;;;;;;;;;6312117;28;20080;-79
2023/08/11 05:23:59;;;;;;;4.22;2.20;;;;;;;;;;6313537;28;20056;-82
2023/08/11 05:27:02;;;;;;;5.25;2.63;;;;;;;;;;6312536;28;20047;-79
2023/08/11 05:30:04;;;;;;;5.13;2.10;;;;;;;;;;6312688;28;20040;-82
2023/08/11 05:33:06;;;;;;;2.70;1.83;;;;;;;;;;6310110;28;20061;-82
2023/08/11 05:36:08;;;;;;;3.35;1.95;;;;;;;;;;6313276;28;20059;-80
2023/08/11 05:39:10;;;;;;;3.70;2.28;;;;;;;;;;6313160;28;20287;-81
2023/08/11 05:42:13;;;;;;;3.80;2.45;;;;;;;;;;6312627;28;20075;-83
2023/08/11 05:45:15;;;;;;;4.97;2.10;;;;;;;;;;6314826;28;20097;-83
2023/08/11 05:48:16;;;;;;;5.13;2.10;;;;;;;;;;6313986;28;20056;-82
2023/08/11 05:51:17;;;;;;;2.75;2.10;;;;;;;;;;6311081;28;20056;-83
2023/08/11 05:54:19;;;;;;;3.28;1.92;;;;;;;;;;6316444;28;20060;-83
2023/08/11 05:57:22;;;;;;;3.42;2.10;;;;;;;;;;6318363;28;20064;-83
2023/08/11 06:00:23;;;;;;;6.30;1.77;;;;;;;;;;6316460;28;20048;-83
2023/08/11 06:03:29;;;;;;;3.95;2.13;;;;;;;;;;6315079;28;20229;-82
2023/08/11 06:06:31;;;;;;;4.80;1.90;;;;;;;;;;6317510;28;20094;-83
2023/08/11 06:09:33;;;;;;;4.25;2.35;;;;;;;;;;6317363;28;20132;-81
2023/08/11 06:12:36;;;;;;;3.90;2.20;;;;;;;;;;6315664;28;20074;-80
2023/08/11 06:15:37;;;;;;;6.25;2.22;;;;;;;;;;6314935;28;20051;-82
2023/08/11 06:18:39;;;;;;;6.10;1.90;;;;;;;;;;6315971;28;20059;-80
2023/08/11 06:21:40;;;;;;;4.47;2.40;;;;;;;;;;6315430;28;20327;-82
2023/08/11 06:24:42;;;;;;;4.95;2.00;;;;;;;;;;6317460;28;20093;-82
2023/08/11 06:27:44;;;;;;;2.67;1.80;;;;;;;;;;6316679;28;20044;-81
2023/08/11 06:30:46;;;;;;;6.68;2.28;;;;;;;;;;6316672;28;20362;-81
2023/08/11 06:33:47;;;;;;;3.60;1.70;;;;;;;;;;6314317;28;20048;-80
2023/08/11 06:36:49;;;;;;;5.50;1.80;;;;;;;;;;6318254;28;20236;-82
2023/08/11 06:39:51;;;;;;;8.60;2.20;;;;;;;;;;6312274;28;20048;-82
2023/08/11 06:42:54;;;;;;;4.78;1.63;;;;;;;;;;6314834;28;20056;-81
2023/08/11 06:45:55;;;;;;;3.20;1.80;;;;;;;;;;6317850;28;20360;-81
2023/08/11 06:48:57;;;;;;;3.58;1.73;;;;;;;;;;6315573;28;20117;-81
2023/08/11 06:51:58;;;;;;;3.13;2.30;;;;;;;;;;6317941;28;20051;-82
2023/08/11 06:55:00;;;;;;;2.10;1.58;;;;;;;;;;6314350;28;20248;-82
2023/08/11 06:58:03;;;;;;;4.40;1.80;;;;;;;;;;6317875;28;20040;-81
2023/08/11 07:01:04;;;;;;;2.38;1.40;;;;;;;;;;6316379;28;20044;-82
2023/08/11 07:04:07;;;;;;;4.70;1.83;;;;;;;;;;6314353;28;20067;-81
2023/08/11 07:07:08;;;;;;;2.58;1.50;;;;;;;;;;6314819;28;20084;-82
2023/08/11 07:10:11;;;;;;;5.93;1.90;;;;;;;;;;6315019;28;20256;-81
2023/08/11 07:13:13;;;;;;;5.00;1.60;;;;;;;;;;6315462;28;20236;-81
2023/08/11 07:16:15;;;;;;;2.60;1.65;;;;;;;;;;6316195;28;20051;-82
2023/08/11 07:19:18;;;;;;;3.85;1.58;;;;;;;;;;6316909;28;20227;-81
2023/08/11 07:22:19;;;;;;;3.65;1.50;;;;;;;;;;6314064;28;20393;-82
2023/08/11 07:25:21;;;;;;;7.45;1.63;;;;;;;;;;6314853;28;20047;-78
2023/08/11 07:28:23;;;;;;;2.80;1.58;;;;;;;;;;6316805;28;20331;-82
2023/08/11 07:31:25;;;;;;;3.25;1.80;;;;;;;;;;6315681;28;20078;-83
2023/08/11 07:34:26;;;;;;;3.30;1.65;;;;;;;;;;6313311;28;20050;-82
2023/08/11 07:37:28;;;;;;;2.75;1.50;;;;;;;;;;6315901;28;20336;-80
2023/08/11 07:40:29;;;;;;;3.20;1.35;;;;;;;;;;6313666;28;20048;-82
2023/08/11 07:43:32;;;;;;;3.63;1.48;;;;;;;;;;6314040;28;20060;-83
2023/08/11 07:46:33;;;;;;;4.40;1.60;;;;;;;;;;6315562;28;20325;-82
2023/08/11 07:49:35;;;;;;;2.47;1.75;;;;;;;;;;6313852;28;20377;-82
2023/08/11 07:52:36;;;;;;;2.38;1.70;;;;;;;;;;6315461;28;20403;-83
2023/08/11 07:55:38;;;;;;;2.78;1.45;;;;;;;;;;6313492;28;20058;-81
2023/08/11 07:58:41;;;;;;;4.93;1.25;;;;;;;;;;6317604;28;20055;-81
2023/08/11 08:01:43;;;;;;;2.90;1.27;;;;;;;;;;6312476;28;20052;-78
2023/08/11 08:04:44;;;;;;;3.22;1.40;;;;;;;;;;6314693;28;20908;-79
2023/08/11 08:07:46;;;;;;;2.50;1.30;;;;;;;;;;6312784;28;20059;-81
2023/08/11 08:10:47;;;;;;;4.20;1.60;;;;;;;;;;6313313;28;20324;-81
2023/08/11 08:13:50;;;;;;;4.60;1.70;;;;;;;;;;6312447;28;20332;-80
2023/08/11 08:16:52;;;;;;;1.83;1.52;;;;;;;;;;6315598;28;20086;-80
2023/08/11 08:19:53;;;;;;;2.00;1.38;;;;;;;;;;6315533;28;20052;-82
2023/08/11 08:22:55;;;;;;;2.13;1.02;;;;;;;;;;6313028;28;20044;-81
2023/08/11 08:25:56;;;;;;;2.70;1.30;;;;;;;;;;6313229;28;20336;-79
2023/08/11 08:28:59;;;;;;;3.72;1.45;;;;;;;;;;6313837;28;20051;-81
2023/08/11 08:32:01;;;;;;;3.30;1.38;;;;;;;;;;6315303;28;20290;-80
2023/08/11 08:35:03;;;;;;;1.95;1.20;;;;;;;;;;6312509;28;20066;-81
2023/08/11 08:38:05;;;;;;;;;;;;;;;;;;6314663;28;20347;-78
2023/08/11 08:41:08;;;;;;;1.67;1.20;;;;;;;;;;6312221;28;19920;-79
2023/08/11 08:44:12;;;;;;;2.85;1.20;;;;;;;;;;6312753;28;20056;-82
2023/08/11 08:47:13;;;;;;;1.42;1.20;;;;;;;;;;6310258;28;20044;-78
2023/08/11 08:50:15;;;;;;;2.13;1.20;;;;;;;;;;6314717;28;20075;-81
2023/08/11 08:53:16;;;;;;;3.20;1.10;;;;;;;;;;6313486;28;20961;-81
2023/08/11 08:56:18;;;;;;;4.72;1.50;;;;;;;;;;6313825;28;20048;-82
2023/08/11 08:59:22;;;;;;;2.50;1.55;;;;;;;;;;6314529;28;20147;-78
2023/08/11 09:02:27;;;;;;;2.28;1.38;;;;;;;;;;6311622;28;20057;-82
2023/08/11 09:05:29;;;;;;;2.65;1.10;;;;;;;;;;6309456;28;20055;-81
2023/08/11 09:08:31;;;;;;;1.33;1.20;;;;;;;;;;6313016;28;20119;-82
2023/08/11 09:11:33;;;;;;;4.22;1.27;;;;;;;;;;6313913;28;20056;-81
2023/08/11 09:14:37;;;;;;;3.73;1.30;;;;;;;;;;6313784;28;20137;-82
2023/08/11 09:17:39;;;;;;;2.80;1.38;;;;;;;;;;6309473;28;20130;-81
2023/08/11 09:20:40;;;;;;;3.10;1.35;;;;;;;;;;6314489;28;20109;-79
2023/08/11 09:23:43;;;;;;;1.92;1.40;;;;;;;;;;6312390;28;20324;-79
2023/08/11 09:26:49;;;;;;;3.55;1.63;;;;;;;;;;6313877;28;20150;-81
2023/08/11 09:29:52;;;;;;;1.80;1.20;;;;;;;;;;6316694;28;20210;-80
2023/08/11 09:32:53;;;;;;;2.95;1.55;;;;;;;;;;6317984;28;20053;-82
2023/08/11 09:35:55;;;;;;;2.38;1.35;;;;;;;;;;6316619;28;20060;-80
2023/08/11 09:38:56;;;;;;;2.25;1.33;;;;;;;;;;6318262;28;20324;-81
2023/08/11 09:41:57;;;;;;;1.98;1.52;;;;;;;;;;6319208;28;20339;-82
2023/08/11 09:45:00;;;;;;;5.65;1.65;;;;;;;;;;6315440;28;20048;-81
2023/08/11 09:48:02;;;;;;;2.58;1.33;;;;;;;;;;6315831;28;20048;-81
2023/08/11 09:51:04;;;;;;;2.63;1.30;;;;;;;;;;6316039;28;20050;-78
2023/08/11 09:54:08;;;;;;;4.75;1.77;;;;;;;;;;6317693;28;20060;-78
2023/08/11 09:57:10;;;;;;;2.70;1.40;;;;;;;;;;6316854;28;20052;-80
2023/08/11 10:00:13;;;;;;;2.80;1.48;;;;;;;;;;6316159;28;20047;-80
2023/08/11 10:03:19;;;;;;;2.08;1.23;;;;;;;;;;6316562;28;20139;-78
2023/08/11 10:06:21;;;;;;;2.35;1.50;;;;;;;;;;6317290;28;20044;-81
2023/08/11 10:09:23;;;;;;;5.18;1.90;;;;;;;;;;6318529;28;20054;-78
2023/08/11 10:12:25;;;;;;;3.97;1.58;;;;;;;;;;6320264;28;20055;-82
2023/08/11 10:15:28;;;;;;;3.63;1.40;;;;;;;;;;6317461;28;20343;-79
2023/08/11 10:18:31;;;;;;;1.70;1.50;;;;;;;;;;6318239;28;20315;-81
2023/08/11 10:21:33;;;;;;;1.83;1.30;;;;;;;;;;6315672;28;20074;-81
2023/08/11 10:24:37;;;;;;;1.83;1.40;;;;;;;;;;6317619;28;20359;-81
2023/08/11 10:27:39;;;;;;;3.72;1.50;;;;;;;;;;6318675;28;20052;-80
2023/08/11 10:30:42;;;;;;;2.13;1.60;;;;;;;;;;6318442;28;20079;-80
2023/08/11 10:33:48;;;;;;;3.75;1.52;;;;;;;;;;6318213;28;20553;-81
2023/08/11 10:36:50;;;;;;;4.13;1.83;;;;;;;;;;6316402;28;20052;-81
2023/08/11 10:40:02;;;;;;;1.80;1.60;;;;;;;;;;6314640;28;20068;-82
2023/08/11 10:43:03;;;;;;;;;;;;;;;;;;6316447;28;20059;-81
2023/08/11 10:46:16;;;;;;;2.38;1.60;;;;;;;;;;6317480;28;19955;-80
2023/08/11 10:49:32;;;;;;;3.47;1.75;;;;;;;;;;6313852;28;20049;-79
2023/08/11 10:52:34;;;;;;;3.67;1.40;;;;;;;;;;6317377;28;20052;-81
2023/08/11 10:55:36;;;;;;;4.20;1.70;;;;;;;;;;6315425;28;20052;-81
2023/08/11 10:58:38;;;;;;;3.45;1.80;;;;;;;;;;6318074;28;20046;-81
2023/08/11 11:01:39;;;;;;;;;;;;;;;;;;6313737;28;20064;-80
2023/08/11 11:04:44;;;;;;;4.10;1.98;;;;;;;;;;6312903;28;19931;-80
2023/08/11 11:07:45;;;;;;;3.30;1.55;;;;;;;;;;6313932;28;20356;-80
2023/08/11 11:10:46;;;;;;;4.20;1.65;;;;;;;;;;6316556;28;20054;-78
2023/08/11 11:13:48;;;;;;;2.00;1.58;;;;;;;;;;6314524;28;20121;-81
2023/08/11 11:16:51;;;;;;;4.50;1.55;;;;;;;;;;6316177;28;20067;-80
2023/08/11 11:19:54;;;;;;;3.35;1.67;;;;;;;;;;6314637;28;20050;-80
2023/08/11 11:22:56;;;;;;;2.00;1.50;;;;;;;;;;6315919;28;20052;-81
2023/08/11 11:25:57;;;;;;;6.32;1.60;;;;;;;;;;6315213;28;20051;-81
2023/08/11 11:28:59;;;;;;;2.65;1.80;;;;;;;;;;6314260;28;20063;-80
2023/08/11 11:32:06;;;;;;;3.15;1.60;;;;;;;;;;6314218;28;20056;-80
2023/08/11 11:35:09;;;;;;;2.08;1.70;;;;;;;;;;6313169;28;20344;-82
2023/08/11 11:38:11;;;;;;;3.20;1.90;;;;;;;;;;6314544;28;20046;-81
2023/08/11 11:41:12;;;;;;;;;;;;;;;;;;6316711;28;20064;-82
2023/08/11 11:44:14;;;;;;;3.47;2.07;;;;;;;;;;6317269;28;19924;-82
2023/08/11 11:47:15;;;;;;;;;;;;;;;;;;6314767;28;20060;-81
2023/08/11 11:50:18;;;;;;;2.50;1.80;;;;;;;;;;6313701;28;19920;-80
2023/08/11 11:53:21;;;;;;;1.80;1.52;;;;;;;;;;6316036;28;20056;-80
2023/08/11 11:56:23;;;;;;;4.75;2.15;;;;;;;;;;6311194;28;20056;-82
2023/08/11 11:59:25;;;;;;;;;;;;;;;;;;6315252;28;20044;-81
2023/08/11 12:02:27;;;;;;;2.33;1.65;;;;;;;;;;6316103;28;19923;-81
2023/08/11 12:05:31;;;;;;;5.75;1.90;;;;;;;;;;6312178;28;20331;-81
2023/08/11 12:08:33;;;;;;;2.95;1.90;;;;;;;;;;6312176;28;20394;-81
2023/08/11 12:11:35;;;;;;;4.25;2.00;;;;;;;;;;6313049;28;20079;-82
2023/08/11 12:14:36;;;;;;;;;;;;;;;;;;6314931;28;20218;-83
2023/08/11 12:17:37;;;;;;;3.53;1.83;;;;;;;;;;6318037;28;20135;-82
2023/08/11 12:20:39;;;;;;;;;;;;;;;;;;6314295;28;20090;-82
2023/08/11 12:23:42;;;;;;;4.20;1.67;;;;;;;;;;6313730;28;19925;-81
2023/08/11 12:26:43;;;;;;;2.13;1.38;;;;;;;;;;6313956;28;20114;-81
2023/08/11 12:29:44;;;;;;;;;;;;;;;;;;6315285;28;20313;-81
2023/08/11 12:32:47;;;;;;;2.38;1.80;;;;;;;;;;6315176;28;19947;-81
2023/08/11 12:35:49;;;;;;;3.53;1.63;;;;;;;;;;6312813;28;20076;-80
2023/08/11 12:38:51;;;;;;;3.78;1.95;;;;;;;;;;6312222;28;20229;-80
2023/08/11 12:41:53;;;;;;;2.70;1.85;;;;;;;;;;6311413;28;20048;-81
2023/08/11 12:44:54;;;;;;;3.25;1.80;;;;;;;;;;6314217;28;20272;-81
2023/08/11 12:47:56;;;;;;;3.08;1.90;;;;;;;;;;6309209;28;20046;-81
2023/08/11 12:50:57;;;;;;;;;;;;;;;;;;6314354;28;20044;-78
2023/08/11 12:54:00;;;;;;;2.63;1.65;;;;;;;;;;6313243;28;20154;-80
2023/08/11 12:57:01;;;;;;;2.72;1.92;;;;;;;;;;6317647;28;20059;-79
2023/08/11 13:00:03;;;;;;;;;;;;;;;;;;6312232;28;20048;-80
2023/08/11 13:03:04;;;;;;;3.53;2.00;;;;;;;;;;6315658;28;19916;-81
2023/08/11 13:06:06;;;;;;;5.38;1.98;;;;;;;;;;6320008;28;20267;-79
2023/08/11 13:09:09;;;;;;;5.97;1.90;;;;;;;;;;6319558;28;20052;-81
2023/08/11 13:12:13;;;;;;;3.33;1.92;;;;;;;;;;6315677;28;20052;-78
2023/08/11 13:15:14;;;;;;;5.60;2.00;;;;;;;;;;6317159;28;20055;-80
2023/08/11 13:18:16;;;;;;;2.53;1.80;;;;;;;;;;6321054;28;20355;-81
2023/08/11 13:21:17;;;;;;;2.70;1.63;;;;;;;;;;6314984;28;20059;-78
2023/08/11 13:24:20;;;;;;;4.45;1.85;;;;;;;;;;6319228;28;20044;-80
2023/08/11 13:27:22;;;;;;;4.40;1.75;;;;;;;;;;6318268;28;20153;-83
2023/08/11 13:30:24;;;;;;;1.95;1.75;;;;;;;;;;6316397;28;20051;-80
2023/08/11 13:33:26;;;;;;;2.45;1.80;;;;;;;;;;6318323;28;20337;-82
2023/08/11 13:36:28;;;;;;;4.68;2.00;;;;;;;;;;6320541;28;20063;-80
2023/08/11 13:39:30;;;;;;;4.47;2.28;;;;;;;;;;6324856;28;20321;-79
2023/08/11 13:42:32;;;;;;;3.47;1.80;;;;;;;;;;6319467;28;20060;-78
2023/08/11 13:45:34;;;;;;;2.83;2.00;;;;;;;;;;6319043;28;20224;-79
2023/08/11 13:48:35;;;;;;;4.53;1.90;;;;;;;;;;6316411;28;20048;-81
2023/08/11 13:51:36;;;;;;;;;;;;;;;;;;6318874;28;20084;-81
2023/08/11 13:54:39;;;;;;;5.75;2.08;;;;;;;;;;6320317;28;19931;-81
2023/08/11 13:57:40;;;;;;;4.85;2.00;;;;;;;;;;6322926;28;20044;-83
2023/08/11 14:00:42;;;;;;;5.30;2.00;;;;;;;;;;6316694;28;20067;-82
2023/08/11 14:03:43;;;;;;;3.88;1.77;;;;;;;;;;6315392;28;20220;-86
2023/08/11 14:06:45;;;;;;;;;;;;;;;;;;6320872;28;20054;-85
2023/08/11 14:09:47;;;;;;;3.17;2.28;;;;;;;;;;6318296;28;19924;-84
2023/08/11 14:12:49;;;;;;;3.15;2.10;;;;;;;;;;6317501;28;20059;-85
2023/08/11 14:15:50;;;;;;;;;;;;;;;;;;6317035;28;20113;-85
2023/08/11 14:18:52;;;;;;;5.45;2.35;;;;;;;;;;6320824;28;20107;-86
2023/08/11 14:21:53;;;;;;;2.15;1.52;;;;;;;;;;6317220;28;20272;-84
2023/08/11 14:24:56;;;;;;;2.83;1.90;;;;;;;;;;6319515;28;20053;-79
2023/08/11 14:27:58;;;;;;;5.15;1.92;;;;;;;;;;6317915;28;20048;-83
2023/08/11 14:30:59;;;;;;;3.05;1.60;;;;;;;;;;6319636;28;20057;-83
2023/08/11 14:34:02;;;;;;;6.70;2.13;;;;;;;;;;6319112;28;20052;-81
2023/08/11 14:37:04;;;;;;;2.38;1.92;;;;;;;;;;6317494;28;20052;-82
2023/08/11 14:40:08;;;;;;;1.70;1.60;;;;;;;;;;6316098;28;20055;-82
2023/08/11 14:43:09;;;;;;;2.00;1.73;;;;;;;;;;6315900;28;22668;-82
2023/08/11 14:46:10;;;;;;;2.15;1.70;;;;;;;;;;6316268;28;20101;-83
2023/08/11 14:49:12;;;;;;;2.65;1.77;;;;;;;;;;6318492;28;20291;-80
2023/08/11 14:52:13;;;;;;;2.20;1.60;;;;;;;;;;6318030;28;20040;-82
2023/08/11 14:55:16;;;;;;;2.38;1.73;;;;;;;;;;6315407;28;20052;-82
2023/08/11 14:58:18;;;;;;;1.88;1.70;;;;;;;;;;6318889;28;20751;-83
2023/08/11 15:01:19;;;;;;;3.63;1.70;;;;;;;;;;6317316;28;20044;-82
2023/08/11 15:04:21;;;;;;;2.70;1.50;;;;;;;;;;6317606;28;20482;-82
2023/08/11 15:07:22;;;;;;;3.65;2.00;;;;;;;;;;6315809;28;20055;-82
2023/08/11 15:10:25;;;;;;;2.65;1.90;;;;;;;;;;6314320;28;20252;-81
2023/08/11 15:13:26;;;;;;;2.05;1.60;;;;;;;;;;6316353;28;20051;-83
2023/08/11 15:16:28;;;;;;;2.70;1.95;;;;;;;;;;6319201;28;20102;-82
2023/08/11 15:19:30;;;;;;;6.22;1.98;;;;;;;;;;6317624;28;20051;-81
2023/08/11 15:22:32;;;;;;;3.38;1.73;;;;;;;;;;6316802;28;20052;-77
2023/08/11 15:25:35;;;;;;;3.58;2.03;;;;;;;;;;6315355;28;20671;-81
2023/08/11 15:28:36;;;;;;;4.57;1.70;;;;;;;;;;6317724;28;20067;-79
2023/08/11 15:31:38;;;;;;;3.05;1.73;;;;;;;;;;6316734;28;20090;-82
2023/08/11 15:34:40;;;;;;;3.28;1.70;;;;;;;;;;6313797;28;20064;-83
2023/08/11 15:37:41;;;;;;;3.72;1.90;;;;;;;;;;6314708;28;20063;-81
2023/08/11 15:40:44;;;;;;;3.42;2.00;;;;;;;;;;6316642;28;20056;-80
2023/08/11 15:43:46;;;;;;;5.03;1.92;;;;;;;;;;6315650;28;20047;-81
2023/08/11 15:46:47;;;;;;;4.75;1.83;;;;;;;;;;6314012;28;20268;-82
2023/08/11 15:49:48;;;;;;;5.78;2.03;;;;;;;;;;6316288;28;20036;-82
2023/08/11 15:52:50;;;;;;;3.17;1.90;;;;;;;;;;6315852;28;20355;-82
2023/08/11 15:55:53;;;;;;;2.05;1.75;;;;;;;;;;6315427;28;20036;-82
2023/08/11 15:58:55;;;;;;;1.92;1.83;;;;;;;;;;6315703;28;20233;-83
2023/08/11 16:01:57;;;;;;;3.65;2.10;;;;;;;;;;6312968;28;20051;-82
2023/08/11 16:04:58;;;;;;;4.65;1.80;;;;;;;;;;6315203;28;20044;-80
2023/08/11 16:08:00;;;;;;;3.60;2.13;;;;;;;;;;6313816;28;20052;-81
2023/08/11 16:11:02;;;;;;;3.27;2.23;;;;;;;;;;6313461;28;20129;-83
2023/08/11 16:14:04;;;;;;;5.38;2.10;;;;;;;;;;6313520;28;20048;-82
2023/08/11 16:17:06;;;;;;;5.80;2.20;;;;;;;;;;6314983;28;20059;-81
2023/08/11 16:20:08;;;;;;;2.70;2.00;;;;;;;;;;6313739;28;20347;-81
2023/08/11 16:23:10;;;;;;;6.68;2.50;;;;;;;;;;6315003;28;20275;-83
2023/08/11 16:26:12;;;;;;;2.70;2.13;;;;;;;;;;6311410;28;20360;-81
2023/08/11 16:29:14;;;;;;;5.60;2.33;;;;;;;;;;6313596;28;20044;-82
2023/08/11 16:32:15;;;;;;;4.68;1.95;;;;;;;;;;6312538;28;20314;-82
2023/08/11 16:35:17;;;;;;;3.92;2.20;;;;;;;;;;6312505;28;20403;-83
2023/08/11 16:38:18;;;;;;;5.03;2.10;;;;;;;;;;6315621;28;20243;-82
2023/08/11 16:41:21;;;;;;;5.78;2.20;;;;;;;;;;6313080;28;20040;-82
2023/08/11 16:44:22;;;;;;;4.43;2.30;;;;;;;;;;6310777;28;20113;-80
2023/08/11 16:47:26;;;;;;;4.07;1.90;;;;;;;;;;6313091;28;20056;-82
2023/08/11 16:50:27;;;;;;;3.78;2.13;;;;;;;;;;6312597;28;20055;-81
2023/08/11 16:53:29;;;;;;;4.32;1.98;;;;;;;;;;6311025;28;20264;-82
2023/08/11 16:56:32;;;;;;;3.10;1.80;;;;;;;;;;6313325;28;20364;-82
2023/08/11 16:59:33;;;;;;;2.58;2.00;;;;;;;;;;6314008;28;20048;-80
2023/08/11 17:02:35;;;;;;;3.60;2.00;;;;;;;;;;6312385;28;20051;-82
2023/08/11 17:05:36;;;;;;;2.58;1.95;;;;;;;;;;6312079;28;20340;-79
2023/08/11 17:08:38;;;;;;;4.95;2.22;;;;;;;;;;6316482;28;20093;-83
2023/08/11 17:11:40;;;;;;;3.70;2.00;;;;;;;;;;6312296;28;20093;-81
2023/08/11 17:14:42;;;;;;;6.72;1.90;;;;;;;;;;6312689;28;20351;-82
2023/08/11 17:17:43;;;;;;;6.80;2.17;;;;;;;;;;6315187;28;20056;-78
2023/08/11 17:20:45;;;;;;;4.10;2.30;;;;;;;;;;6311232;28;20052;-81
2023/08/11 17:23:47;;;;;;;4.45;2.03;;;;;;;;;;6314872;28;20044;-81
2023/08/11 17:26:49;;;;;;;5.63;2.40;;;;;;;;;;6313400;28;20052;-82
2023/08/11 17:29:51;;;;;;;3.63;2.13;;;;;;;;;;6315084;28;20693;-83
2023/08/11 17:32:52;;;;;;;3.88;2.25;;;;;;;;;;6314184;28;20090;-82
2023/08/11 17:35:54;;;;;;;6.13;2.63;;;;;;;;;;6313948;28;20111;-82
2023/08/11 17:38:56;;;;;;;6.43;2.08;;;;;;;;;;6315323;28;20252;-77
2023/08/11 17:42:03;;;;;;;5.07;3.17;;;;;;;;;;6313574;28;20082;-79
2023/08/11 17:45:05;;;;;;;5.90;2.72;;;;;;;;;;6313963;28;20336;-78
2023/08/11 17:48:06;;;;;;;3.00;2.30;;;;;;;;;;6316765;28;20040;-78
2023/08/11 17:51:08;;;;;;;6.53;2.27;;;;;;;;;;6316160;28;20047;-79
2023/08/11 17:54:09;;;;;;;2.95;2.05;;;;;;;;;;6316793;28;20056;-79
2023/08/11 17:57:12;;;;;;;2.70;2.30;;;;;;;;;;6319884;28;20056;-77
2023/08/11 18:00:14;;;;;;;;;;;;;;;;;;6319822;28;20056;-80
2023/08/11 18:03:16;;;;;;;3.92;2.45;;;;;;;;;;6317981;28;19937;-80
2023/08/11 18:06:17;;;;;;;6.70;2.50;;;;;;;;;;6315984;28;20093;-78
2023/08/11 18:09:18;;;;;;;4.22;2.40;;;;;;;;;;6315280;28;20063;-80
2023/08/11 18:12:23;;;;;;;3.53;2.63;;;;;;;;;;6317285;28;20048;-80
2023/08/11 18:15:25;;;;;;;5.47;2.30;;;;;;;;;;6315428;28;20082;-79
2023/08/11 18:18:26;;;;;;;2.85;2.55;;;;;;;;;;6319992;28;20044;-79